sensor_id;sensor_type;location;lat;lon;timestamp;pressure;altitude;pressure_sealevel;temperature;humidity
75891;BME280;64571;47.512;19.054;2023-05-02T00:02:54;100525.50;;;14.40;50.80
75891;BME280;64571;47.512;19.054;2023-05-02T00:05:58;100521.25;;;14.42;50.41
75891;BME280;64571;47.512;19.054;2023-05-02T00:09:02;100522.72;;;14.40;50.11
75891;BME280;64571;47.512;19.054;2023-05-02T00:12:05;100525.34;;;14.36;50.65
75891;BME280;64571;47.512;19.054;2023-05-02T00:15:08;100519.63;;;14.41;50.59
75891;BME280;64571;47.512;19.054;2023-05-02T00:18:11;100516.28;;;14.39;50.97
75891;BME280;64571;47.512;19.054;2023-05-02T00:21:14;100520.44;;;14.42;51.11
75891;BME280;64571;47.512;19.054;2023-05-02T00:24:17;100501.19;;;14.18;50.93
75891;BME280;64571;47.512;19.054;2023-05-02T00:27:19;100517.88;;;14.23;51.45
75891;BME280;64571;47.512;19.054;2023-05-02T00:30:22;100521.06;;;14.39;51.19
75891;BME280;64571;47.512;19.054;2023-05-02T00:33:24;100516.72;;;14.24;51.67
75891;BME280;64571;47.512;19.054;2023-05-02T00:36:27;100510.66;;;14.31;50.54
75891;BME280;64571;47.512;19.054;2023-05-02T00:39:29;100506.91;;;14.35;50.20
75891;BME280;64571;47.512;19.054;2023-05-02T00:42:32;100513.25;;;14.50;49.66
75891;BME280;64571;47.512;19.054;2023-05-02T00:45:38;100512.13;;;14.51;49.65
75891;BME280;64571;47.512;19.054;2023-05-02T00:48:42;100500.94;;;14.51;48.50
75891;BME280;64571;47.512;19.054;2023-05-02T00:51:46;100499.78;;;14.52;48.33
75891;BME280;64571;47.512;19.054;2023-05-02T00:54:49;100492.66;;;14.46;47.89
75891;BME280;64571;47.512;19.054;2023-05-02T00:57:51;100506.31;;;14.47;47.72
75891;BME280;64571;47.512;19.054;2023-05-02T01:04:48;100519.25;;;14.65;47.04
75891;BME280;64571;47.512;19.054;2023-05-02T01:08:12;100518.63;;;14.68;46.79
75891;BME280;64571;47.512;19.054;2023-05-02T01:11:47;100499.19;;;14.63;46.59
75891;BME280;64571;47.512;19.054;2023-05-02T01:14:56;100517.16;;;14.80;45.55
75891;BME280;64571;47.512;19.054;2023-05-02T01:18:00;100514.38;;;14.80;45.31
75891;BME280;64571;47.512;19.054;2023-05-02T01:21:06;100507.59;;;14.72;45.50
75891;BME280;64571;47.512;19.054;2023-05-02T01:24:10;100516.84;;;14.81;45.86
75891;BME280;64571;47.512;19.054;2023-05-02T01:27:39;100513.69;;;14.74;46.76
75891;BME280;64571;47.512;19.054;2023-05-02T01:30:45;100512.50;;;14.66;48.07
75891;BME280;64571;47.512;19.054;2023-05-02T01:33:49;100522.84;;;14.57;48.76
75891;BME280;64571;47.512;19.054;2023-05-02T01:36:53;100517.19;;;14.49;49.14
75891;BME280;64571;47.512;19.054;2023-05-02T01:39:59;100510.22;;;14.37;49.07
75891;BME280;64571;47.512;19.054;2023-05-02T01:43:04;100512.63;;;14.30;49.46
75891;BME280;64571;47.512;19.054;2023-05-02T01:46:09;100521.16;;;14.25;49.27
75891;BME280;64571;47.512;19.054;2023-05-02T01:49:12;100497.91;;;14.16;49.69
75891;BME280;64571;47.512;19.054;2023-05-02T01:52:16;100515.06;;;14.23;49.72
75891;BME280;64571;47.512;19.054;2023-05-02T01:55:23;100483.59;;;14.17;49.24
75891;BME280;64571;47.512;19.054;2023-05-02T01:58:28;100490.03;;;14.18;48.64
75891;BME280;64571;47.512;19.054;2023-05-02T02:01:32;100507.66;;;14.27;48.53
75891;BME280;64571;47.512;19.054;2023-05-02T02:04:38;100507.19;;;14.25;49.72
75891;BME280;64571;47.512;19.054;2023-05-02T02:07:43;100500.56;;;14.21;49.58
75891;BME280;64571;47.512;19.054;2023-05-02T02:10:52;100505.47;;;14.15;49.29
75891;BME280;64571;47.512;19.054;2023-05-02T02:14:01;100501.87;;;14.15;49.75
75891;BME280;64571;47.512;19.054;2023-05-02T02:17:12;100485.47;;;14.00;50.04
75891;BME280;64571;47.512;19.054;2023-05-02T02:20:17;100489.22;;;13.95;50.58
75891;BME280;64571;47.512;19.054;2023-05-02T02:23:23;100494.00;;;13.94;50.60
75891;BME280;64571;47.512;19.054;2023-05-02T02:26:27;100494.31;;;13.93;49.92
75891;BME280;64571;47.512;19.054;2023-05-02T02:29:30;100477.91;;;13.78;50.18
75891;BME280;64571;47.512;19.054;2023-05-02T02:32:32;100475.59;;;13.71;50.34
75891;BME280;64571;47.512;19.054;2023-05-02T02:35:42;100490.44;;;13.80;50.35
75891;BME280;64571;47.512;19.054;2023-05-02T02:39:17;100493.84;;;13.77;50.96
75891;BME280;64571;47.512;19.054;2023-05-02T02:42:32;100493.50;;;13.70;50.88
75891;BME280;64571;47.512;19.054;2023-05-02T02:46:13;100489.00;;;13.60;51.32
75891;BME280;64571;47.512;19.054;2023-05-02T02:49:37;100486.62;;;13.54;51.09
75891;BME280;64571;47.512;19.054;2023-05-02T02:53:24;100497.09;;;13.48;52.66
75891;BME280;64571;47.512;19.054;2023-05-02T02:56:31;100495.25;;;13.43;52.43
75891;BME280;64571;47.512;19.054;2023-05-02T02:59:43;100496.38;;;13.42;52.12
75891;BME280;64571;47.512;19.054;2023-05-02T03:02:48;100497.84;;;13.40;52.70
75891;BME280;64571;47.512;19.054;2023-05-02T03:05:52;100498.16;;;13.38;52.72
75891;BME280;64571;47.512;19.054;2023-05-02T03:08:55;100496.31;;;13.34;52.66
75891;BME280;64571;47.512;19.054;2023-05-02T03:11:59;100505.50;;;13.34;52.50
75891;BME280;64571;47.512;19.054;2023-05-02T03:18:41;100504.97;;;13.32;51.94
75891;BME280;64571;47.512;19.054;2023-05-02T03:21:43;100485.56;;;13.27;51.92
75891;BME280;64571;47.512;19.054;2023-05-02T03:24:46;100490.53;;;13.30;51.82
75891;BME280;64571;47.512;19.054;2023-05-02T03:27:49;100498.28;;;13.33;51.01
75891;BME280;64571;47.512;19.054;2023-05-02T03:30:52;100493.81;;;13.32;51.03
75891;BME280;64571;47.512;19.054;2023-05-02T03:33:55;100510.34;;;13.42;51.21
75891;BME280;64571;47.512;19.054;2023-05-02T03:36:58;100499.91;;;13.34;50.94
75891;BME280;64571;47.512;19.054;2023-05-02T03:40:00;100508.09;;;13.31;51.50
75891;BME280;64571;47.512;19.054;2023-05-02T03:43:04;100515.13;;;13.28;51.51
75891;BME280;64571;47.512;19.054;2023-05-02T03:46:08;100523.50;;;13.28;51.64
75891;BME280;64571;47.512;19.054;2023-05-02T03:49:11;100518.31;;;13.22;51.79
75891;BME280;64571;47.512;19.054;2023-05-02T03:52:15;100516.97;;;13.19;51.83
75891;BME280;64571;47.512;19.054;2023-05-02T03:55:19;100520.28;;;13.21;51.95
75891;BME280;64571;47.512;19.054;2023-05-02T03:58:22;100518.03;;;13.23;51.91
75891;BME280;64571;47.512;19.054;2023-05-02T04:01:26;100507.06;;;13.13;51.89
75891;BME280;64571;47.512;19.054;2023-05-02T04:04:31;100529.81;;;13.20;51.87
75891;BME280;64571;47.512;19.054;2023-05-02T04:07:34;100519.88;;;13.14;52.15
75891;BME280;64571;47.512;19.054;2023-05-02T04:10:38;100522.88;;;13.17;52.00
75891;BME280;64571;47.512;19.054;2023-05-02T04:13:42;100513.69;;;13.17;52.04
75891;BME280;64571;47.512;19.054;2023-05-02T04:16:49;100521.09;;;13.22;51.56
75891;BME280;64571;47.512;19.054;2023-05-02T04:19:53;100517.81;;;13.20;51.59
75891;BME280;64571;47.512;19.054;2023-05-02T04:22:56;100513.47;;;13.13;51.48
75891;BME280;64571;47.512;19.054;2023-05-02T04:25:59;100532.06;;;13.18;51.82
75891;BME280;64571;47.512;19.054;2023-05-02T04:29:02;100548.81;;;13.18;51.89
75891;BME280;64571;47.512;19.054;2023-05-02T04:32:06;100535.59;;;13.10;52.11
75891;BME280;64571;47.512;19.054;2023-05-02T04:35:10;100552.25;;;13.15;52.13
75891;BME280;64571;47.512;19.054;2023-05-02T04:38:13;100532.28;;;13.08;52.02
75891;BME280;64571;47.512;19.054;2023-05-02T04:41:16;100543.97;;;13.24;51.91
75891;BME280;64571;47.512;19.054;2023-05-02T04:44:19;100554.72;;;13.30;51.81
75891;BME280;64571;47.512;19.054;2023-05-02T04:47:22;100555.13;;;13.37;51.69
75891;BME280;64571;47.512;19.054;2023-05-02T04:50:26;100557.59;;;13.39;51.66
75891;BME280;64571;47.512;19.054;2023-05-02T04:53:29;100546.75;;;13.37;51.74
75891;BME280;64571;47.512;19.054;2023-05-02T04:56:32;100559.78;;;13.42;52.23
75891;BME280;64571;47.512;19.054;2023-05-02T04:59:36;100540.75;;;13.30;52.58
75891;BME280;64571;47.512;19.054;2023-05-02T05:02:38;100558.19;;;13.50;52.60
75891;BME280;64571;47.512;19.054;2023-05-02T05:05:42;100543.84;;;13.42;52.61
75891;BME280;64571;47.512;19.054;2023-05-02T05:08:45;100551.09;;;13.43;52.68
75891;BME280;64571;47.512;19.054;2023-05-02T05:11:49;100552.13;;;13.48;53.25
75891;BME280;64571;47.512;19.054;2023-05-02T05:14:51;100559.53;;;13.52;53.09
75891;BME280;64571;47.512;19.054;2023-05-02T05:17:54;100561.63;;;13.47;53.50
75891;BME280;64571;47.512;19.054;2023-05-02T05:20:57;100570.72;;;13.52;53.74
75891;BME280;64571;47.512;19.054;2023-05-02T05:24:00;100561.19;;;13.53;53.56
75891;BME280;64571;47.512;19.054;2023-05-02T05:27:03;100566.37;;;13.60;53.70
75891;BME280;64571;47.512;19.054;2023-05-02T05:30:07;100558.28;;;13.58;53.74
75891;BME280;64571;47.512;19.054;2023-05-02T05:33:13;100555.56;;;13.67;53.87
75891;BME280;64571;47.512;19.054;2023-05-02T05:36:17;100580.31;;;13.96;53.81
75891;BME280;64571;47.512;19.054;2023-05-02T05:39:19;100574.47;;;14.06;53.88
75891;BME280;64571;47.512;19.054;2023-05-02T05:42:22;100588.72;;;14.18;53.37
75891;BME280;64571;47.512;19.054;2023-05-02T05:45:25;100588.63;;;14.32;53.14
75891;BME280;64571;47.512;19.054;2023-05-02T05:48:28;100590.00;;;14.43;53.03
75891;BME280;64571;47.512;19.054;2023-05-02T05:51:32;100588.12;;;14.53;53.02
75891;BME280;64571;47.512;19.054;2023-05-02T05:54:35;100594.16;;;14.68;52.69
75891;BME280;64571;47.512;19.054;2023-05-02T05:57:37;100594.56;;;14.84;52.46
75891;BME280;64571;47.512;19.054;2023-05-02T06:00:41;100575.91;;;15.19;51.26
75891;BME280;64571;47.512;19.054;2023-05-02T06:03:44;100594.84;;;15.71;50.41
75891;BME280;64571;47.512;19.054;2023-05-02T06:06:49;100592.69;;;16.11;49.64
75891;BME280;64571;47.512;19.054;2023-05-02T06:09:53;100594.16;;;16.43;48.87
75891;BME280;64571;47.512;19.054;2023-05-02T06:12:56;100603.66;;;16.86;47.68
75891;BME280;64571;47.512;19.054;2023-05-02T06:16:00;100592.84;;;17.05;47.27
75891;BME280;64571;47.512;19.054;2023-05-02T06:19:03;100587.22;;;17.05;47.43
75891;BME280;64571;47.512;19.054;2023-05-02T06:22:06;100580.31;;;17.32;46.92
75891;BME280;64571;47.512;19.054;2023-05-02T06:25:09;100581.03;;;17.29;46.83
75891;BME280;64571;47.512;19.054;2023-05-02T06:28:11;100595.44;;;17.78;45.75
75891;BME280;64571;47.512;19.054;2023-05-02T06:31:28;100594.69;;;17.90;45.14
75891;BME280;64571;47.512;19.054;2023-05-02T06:34:31;100604.34;;;18.22;44.76
75891;BME280;64571;47.512;19.054;2023-05-02T06:37:36;100597.44;;;18.19;44.57
75891;BME280;64571;47.512;19.054;2023-05-02T06:40:39;100582.44;;;18.28;43.90
75891;BME280;64571;47.512;19.054;2023-05-02T06:43:46;100597.88;;;18.42;43.65
75891;BME280;64571;47.512;19.054;2023-05-02T06:46:49;100601.06;;;18.53;43.71
75891;BME280;64571;47.512;19.054;2023-05-02T06:49:51;100598.56;;;18.72;43.37
75891;BME280;64571;47.512;19.054;2023-05-02T06:52:55;100604.13;;;18.93;42.48
75891;BME280;64571;47.512;19.054;2023-05-02T06:55:57;100596.41;;;19.27;41.93
75891;BME280;64571;47.512;19.054;2023-05-02T06:59:00;100586.06;;;19.07;42.18
75891;BME280;64571;47.512;19.054;2023-05-02T07:02:02;100587.38;;;19.09;42.03
75891;BME280;64571;47.512;19.054;2023-05-02T07:05:07;100593.50;;;19.60;41.17
75891;BME280;64571;47.512;19.054;2023-05-02T07:08:09;100601.47;;;19.70;40.84
75891;BME280;64571;47.512;19.054;2023-05-02T07:11:13;100596.87;;;19.54;41.08
75891;BME280;64571;47.512;19.054;2023-05-02T07:14:15;100571.69;;;19.85;40.32
75891;BME280;64571;47.512;19.054;2023-05-02T07:17:17;100600.13;;;19.92;40.32
75891;BME280;64571;47.512;19.054;2023-05-02T07:20:20;100597.56;;;19.75;40.45
75891;BME280;64571;47.512;19.054;2023-05-02T07:23:23;100584.31;;;20.04;40.08
75891;BME280;64571;47.512;19.054;2023-05-02T07:26:27;100569.06;;;20.33;39.35
75891;BME280;64571;47.512;19.054;2023-05-02T07:29:29;100571.34;;;20.71;39.07
75891;BME280;64571;47.512;19.054;2023-05-02T07:32:32;100586.31;;;20.71;39.24
75891;BME280;64571;47.512;19.054;2023-05-02T07:35:35;100585.03;;;20.41;39.67
75891;BME280;64571;47.512;19.054;2023-05-02T07:38:37;100580.81;;;20.35;39.72
75891;BME280;64571;47.512;19.054;2023-05-02T07:41:40;100576.66;;;20.16;39.86
75891;BME280;64571;47.512;19.054;2023-05-02T07:44:42;100587.25;;;20.47;39.40
75891;BME280;64571;47.512;19.054;2023-05-02T07:47:45;100584.09;;;20.49;39.50
75891;BME280;64571;47.512;19.054;2023-05-02T07:50:48;100594.84;;;20.31;39.76
75891;BME280;64571;47.512;19.054;2023-05-02T07:53:50;100603.03;;;20.36;39.78
75891;BME280;64571;47.512;19.054;2023-05-02T07:56:59;100598.81;;;20.02;40.41
75891;BME280;64571;47.512;19.054;2023-05-02T08:00:05;100597.59;;;20.15;40.21
75891;BME280;64571;47.512;19.054;2023-05-02T08:03:13;100583.09;;;20.17;40.25
75891;BME280;64571;47.512;19.054;2023-05-02T08:06:16;100597.41;;;20.36;40.60
75891;BME280;64571;47.512;19.054;2023-05-02T08:09:19;100582.59;;;19.99;40.63
75891;BME280;64571;47.512;19.054;2023-05-02T08:12:21;100589.31;;;20.63;39.89
75891;BME280;64571;47.512;19.054;2023-05-02T08:15:24;100577.44;;;20.57;39.52
75891;BME280;64571;47.512;19.054;2023-05-02T08:18:26;100590.59;;;19.97;40.83
75891;BME280;64571;47.512;19.054;2023-05-02T08:21:29;100578.25;;;19.89;40.83
75891;BME280;64571;47.512;19.054;2023-05-02T08:24:33;100601.03;;;20.09;40.90
75891;BME280;64571;47.512;19.054;2023-05-02T08:27:36;100602.28;;;19.83;41.36
75891;BME280;64571;47.512;19.054;2023-05-02T08:30:38;100605.34;;;19.78;41.57
75891;BME280;64571;47.512;19.054;2023-05-02T08:33:42;100597.50;;;20.40;40.46
75891;BME280;64571;47.512;19.054;2023-05-02T08:36:46;100585.69;;;20.94;39.38
75891;BME280;64571;47.512;19.054;2023-05-02T08:39:48;100596.16;;;21.25;38.88
75891;BME280;64571;47.512;19.054;2023-05-02T08:42:51;100590.63;;;21.44;38.47
75891;BME280;64571;47.512;19.054;2023-05-02T08:45:58;100585.31;;;21.43;38.73
75891;BME280;64571;47.512;19.054;2023-05-02T08:49:04;100579.66;;;20.80;39.34
75891;BME280;64571;47.512;19.054;2023-05-02T08:52:08;100586.50;;;20.79;39.27
75891;BME280;64571;47.512;19.054;2023-05-02T08:55:12;100595.00;;;21.26;38.69
75891;BME280;64571;47.512;19.054;2023-05-02T08:58:14;100592.69;;;21.47;37.98
75891;BME280;64571;47.512;19.054;2023-05-02T09:01:21;100585.06;;;21.32;38.22
75891;BME280;64571;47.512;19.054;2023-05-02T09:04:30;100584.44;;;21.74;37.60
75891;BME280;64571;47.512;19.054;2023-05-02T09:07:45;100564.47;;;21.67;37.52
75891;BME280;64571;47.512;19.054;2023-05-02T09:10:48;100575.41;;;22.04;37.01
75891;BME280;64571;47.512;19.054;2023-05-02T09:13:52;100573.19;;;21.78;37.55
75891;BME280;64571;47.512;19.054;2023-05-02T09:16:58;100565.66;;;21.66;37.79
75891;BME280;64571;47.512;19.054;2023-05-02T09:20:02;100573.31;;;21.65;37.90
75891;BME280;64571;47.512;19.054;2023-05-02T09:23:06;100559.31;;;22.08;36.59
75891;BME280;64571;47.512;19.054;2023-05-02T09:29:18;100573.59;;;22.54;35.18
75891;BME280;64571;47.512;19.054;2023-05-02T09:32:44;100554.47;;;22.47;35.12
75891;BME280;64571;47.512;19.054;2023-05-02T09:35:55;100573.63;;;22.34;35.35
75891;BME280;64571;47.512;19.054;2023-05-02T09:39:08;100567.81;;;22.69;34.92
75891;BME280;64571;47.512;19.054;2023-05-02T09:42:11;100561.16;;;22.81;34.75
75891;BME280;64571;47.512;19.054;2023-05-02T09:45:24;100565.16;;;22.99;34.42
75891;BME280;64571;47.512;19.054;2023-05-02T09:48:29;100563.28;;;23.07;34.29
75891;BME280;64571;47.512;19.054;2023-05-02T09:51:32;100553.97;;;23.33;33.85
75891;BME280;64571;47.512;19.054;2023-05-02T09:54:34;100535.56;;;22.97;34.13
75891;BME280;64571;47.512;19.054;2023-05-02T09:57:38;100564.72;;;23.47;33.80
75891;BME280;64571;47.512;19.054;2023-05-02T10:00:43;100557.25;;;23.62;33.58
75891;BME280;64571;47.512;19.054;2023-05-02T10:03:46;100547.50;;;23.33;33.88
75891;BME280;64571;47.512;19.054;2023-05-02T10:06:51;100536.25;;;23.40;33.80
75891;BME280;64571;47.512;19.054;2023-05-02T10:09:57;100535.28;;;23.55;32.93
75891;BME280;64571;47.512;19.054;2023-05-02T10:13:00;100555.75;;;23.18;33.15
75891;BME280;64571;47.512;19.054;2023-05-02T10:16:05;100552.44;;;23.13;33.38
75891;BME280;64571;47.512;19.054;2023-05-02T10:19:09;100534.75;;;23.49;32.73
75891;BME280;64571;47.512;19.054;2023-05-02T10:22:14;100533.19;;;23.52;32.93
75891;BME280;64571;47.512;19.054;2023-05-02T10:25:20;100527.63;;;23.33;33.48
75891;BME280;64571;47.512;19.054;2023-05-02T10:28:24;100538.00;;;23.48;33.58
75891;BME280;64571;47.512;19.054;2023-05-02T10:31:33;100543.00;;;23.85;33.46
75891;BME280;64571;47.512;19.054;2023-05-02T10:34:38;100529.75;;;23.39;33.19
75891;BME280;64571;47.512;19.054;2023-05-02T10:37:41;100544.09;;;23.50;33.38
75891;BME280;64571;47.512;19.054;2023-05-02T10:40:52;100539.25;;;23.50;33.24
75891;BME280;64571;47.512;19.054;2023-05-02T10:43:57;100549.25;;;23.18;33.76
75891;BME280;64571;47.512;19.054;2023-05-02T10:50:19;100534.34;;;23.47;33.68
75891;BME280;64571;47.512;19.054;2023-05-02T10:53:26;100540.25;;;23.92;33.25
75891;BME280;64571;47.512;19.054;2023-05-02T10:56:29;100521.91;;;23.29;34.47
75891;BME280;64571;47.512;19.054;2023-05-02T10:59:36;100526.53;;;23.97;33.53
75891;BME280;64571;47.512;19.054;2023-05-02T11:06:04;100523.53;;;24.91;32.46
75891;BME280;64571;47.512;19.054;2023-05-02T11:19:00;100515.50;;;25.04;32.33
75891;BME280;64571;47.512;19.054;2023-05-02T11:25:36;100507.84;;;24.67;32.99
75891;BME280;64571;47.512;19.054;2023-05-02T11:28:43;100504.16;;;24.26;33.50
75891;BME280;64571;47.512;19.054;2023-05-02T11:31:52;100506.56;;;24.24;33.99
75891;BME280;64571;47.512;19.054;2023-05-02T11:34:57;100496.00;;;23.87;34.22
75891;BME280;64571;47.512;19.054;2023-05-02T11:38:07;100508.03;;;24.44;33.55
75891;BME280;64571;47.512;19.054;2023-05-02T11:41:09;100494.34;;;25.01;32.76
75891;BME280;64571;47.512;19.054;2023-05-02T11:44:12;100504.44;;;25.47;32.26
75891;BME280;64571;47.512;19.054;2023-05-02T11:47:15;100494.66;;;25.41;31.98
75891;BME280;64571;47.512;19.054;2023-05-02T11:50:17;100501.06;;;25.27;32.23
75891;BME280;64571;47.512;19.054;2023-05-02T11:53:22;100495.94;;;24.95;32.52
75891;BME280;64571;47.512;19.054;2023-05-02T11:56:25;100480.25;;;24.68;32.56
75891;BME280;64571;47.512;19.054;2023-05-02T11:59:28;100486.66;;;24.58;31.82
75891;BME280;64571;47.512;19.054;2023-05-02T12:02:41;100490.66;;;24.53;31.97
75891;BME280;64571;47.512;19.054;2023-05-02T12:05:44;100471.34;;;24.32;32.62
75891;BME280;64571;47.512;19.054;2023-05-02T12:08:47;100468.63;;;24.43;32.38
75891;BME280;64571;47.512;19.054;2023-05-02T12:11:52;100478.44;;;24.12;32.25
75891;BME280;64571;47.512;19.054;2023-05-02T12:14:54;100472.50;;;23.90;32.27
75891;BME280;64571;47.512;19.054;2023-05-02T12:17:58;100477.41;;;23.93;32.40
75891;BME280;64571;47.512;19.054;2023-05-02T12:21:01;100474.63;;;23.97;32.27
75891;BME280;64571;47.512;19.054;2023-05-02T12:24:03;100477.63;;;23.78;32.12
75891;BME280;64571;47.512;19.054;2023-05-02T12:27:11;100479.91;;;23.68;32.22
75891;BME280;64571;47.512;19.054;2023-05-02T12:30:24;100461.66;;;23.99;31.97
75891;BME280;64571;47.512;19.054;2023-05-02T12:33:27;100461.16;;;24.28;31.16
75891;BME280;64571;47.512;19.054;2023-05-02T12:36:30;100455.69;;;24.45;30.90
75891;BME280;64571;47.512;19.054;2023-05-02T12:39:40;100465.38;;;24.41;30.83
75891;BME280;64571;47.512;19.054;2023-05-02T12:43:00;100462.84;;;24.32;31.02
75891;BME280;64571;47.512;19.054;2023-05-02T12:46:09;100448.91;;;24.20;31.16
75891;BME280;64571;47.512;19.054;2023-05-02T12:49:12;100451.78;;;24.23;30.76
75891;BME280;64571;47.512;19.054;2023-05-02T12:52:14;100460.97;;;24.47;30.59
75891;BME280;64571;47.512;19.054;2023-05-02T12:55:18;100455.75;;;24.53;30.59
75891;BME280;64571;47.512;19.054;2023-05-02T12:58:20;100453.63;;;24.42;30.48
75891;BME280;64571;47.512;19.054;2023-05-02T13:01:26;100458.22;;;24.58;30.54
75891;BME280;64571;47.512;19.054;2023-05-02T13:04:47;100456.91;;;24.48;30.48
75891;BME280;64571;47.512;19.054;2023-05-02T13:07:50;100465.19;;;24.26;30.93
75891;BME280;64571;47.512;19.054;2023-05-02T13:10:53;100452.47;;;24.13;31.25
75891;BME280;64571;47.512;19.054;2023-05-02T13:13:56;100440.59;;;24.00;31.12
75891;BME280;64571;47.512;19.054;2023-05-02T13:17:01;100458.28;;;23.87;31.46
75891;BME280;64571;47.512;19.054;2023-05-02T13:20:04;100434.56;;;23.72;31.88
75891;BME280;64571;47.512;19.054;2023-05-02T13:23:07;100441.25;;;23.90;32.05
75891;BME280;64571;47.512;19.054;2023-05-02T13:26:10;100441.94;;;23.80;32.35
75891;BME280;64571;47.512;19.054;2023-05-02T13:29:13;100435.00;;;23.74;32.46
75891;BME280;64571;47.512;19.054;2023-05-02T13:32:15;100441.78;;;23.66;32.66
75891;BME280;64571;47.512;19.054;2023-05-02T13:35:18;100428.88;;;23.42;32.50
75891;BME280;64571;47.512;19.054;2023-05-02T13:38:21;100438.22;;;23.42;32.67
75891;BME280;64571;47.512;19.054;2023-05-02T13:41:23;100435.91;;;23.52;32.34
75891;BME280;64571;47.512;19.054;2023-05-02T13:44:26;100421.56;;;23.41;32.52
75891;BME280;64571;47.512;19.054;2023-05-02T13:47:28;100436.09;;;23.66;32.32
75891;BME280;64571;47.512;19.054;2023-05-02T13:50:31;100426.84;;;23.69;32.14
75891;BME280;64571;47.512;19.054;2023-05-02T13:53:38;100437.88;;;23.78;32.21
75891;BME280;64571;47.512;19.054;2023-05-02T13:56:41;100427.09;;;23.60;32.10
75891;BME280;64571;47.512;19.054;2023-05-02T13:59:43;100440.03;;;23.58;32.58
75891;BME280;64571;47.512;19.054;2023-05-02T14:02:46;100429.41;;;23.51;32.74
75891;BME280;64571;47.512;19.054;2023-05-02T14:05:50;100422.06;;;23.46;32.46
75891;BME280;64571;47.512;19.054;2023-05-02T14:08:52;100431.56;;;23.61;32.17
75891;BME280;64571;47.512;19.054;2023-05-02T14:11:55;100431.97;;;23.63;31.86
75891;BME280;64571;47.512;19.054;2023-05-02T14:14:59;100438.47;;;23.64;31.86
75891;BME280;64571;47.512;19.054;2023-05-02T14:18:02;100424.44;;;23.44;31.72
75891;BME280;64571;47.512;19.054;2023-05-02T14:21:04;100426.78;;;23.65;31.51
75891;BME280;64571;47.512;19.054;2023-05-02T14:24:07;100422.12;;;23.54;31.62
75891;BME280;64571;47.512;19.054;2023-05-02T14:27:09;100419.63;;;23.48;31.68
75891;BME280;64571;47.512;19.054;2023-05-02T14:30:14;100418.38;;;23.46;31.84
75891;BME280;64571;47.512;19.054;2023-05-02T14:33:16;100423.34;;;23.53;32.07
75891;BME280;64571;47.512;19.054;2023-05-02T14:36:19;100431.09;;;23.56;31.46
75891;BME280;64571;47.512;19.054;2023-05-02T14:39:22;100434.81;;;23.63;31.67
75891;BME280;64571;47.512;19.054;2023-05-02T14:42:25;100435.59;;;23.60;31.59
75891;BME280;64571;47.512;19.054;2023-05-02T14:45:27;100426.00;;;23.38;31.92
75891;BME280;64571;47.512;19.054;2023-05-02T14:48:30;100438.34;;;23.53;32.15
75891;BME280;64571;47.512;19.054;2023-05-02T14:51:33;100431.72;;;23.42;32.44
75891;BME280;64571;47.512;19.054;2023-05-02T14:54:35;100432.47;;;23.39;32.53
75891;BME280;64571;47.512;19.054;2023-05-02T14:57:38;100442.28;;;23.45;32.65
75891;BME280;64571;47.512;19.054;2023-05-02T15:00:40;100444.66;;;23.39;32.71
75891;BME280;64571;47.512;19.054;2023-05-02T15:03:43;100422.63;;;23.29;32.72
75891;BME280;64571;47.512;19.054;2023-05-02T15:07:06;100440.50;;;23.33;32.83
75891;BME280;64571;47.512;19.054;2023-05-02T15:10:09;100431.25;;;23.10;32.72
75891;BME280;64571;47.512;19.054;2023-05-02T15:13:11;100431.69;;;23.12;32.85
75891;BME280;64571;47.512;19.054;2023-05-02T15:16:14;100453.09;;;23.06;33.08
75891;BME280;64571;47.512;19.054;2023-05-02T15:19:17;100446.41;;;22.94;33.92
75891;BME280;64571;47.512;19.054;2023-05-02T15:22:19;100444.63;;;22.86;34.75
75891;BME280;64571;47.512;19.054;2023-05-02T15:25:23;100442.25;;;22.88;35.29
75891;BME280;64571;47.512;19.054;2023-05-02T15:28:26;100445.16;;;22.92;35.41
75891;BME280;64571;47.512;19.054;2023-05-02T15:31:28;100446.25;;;22.87;35.29
75891;BME280;64571;47.512;19.054;2023-05-02T15:34:31;100419.50;;;22.85;34.39
75891;BME280;64571;47.512;19.054;2023-05-02T15:37:34;100428.53;;;22.90;33.94
75891;BME280;64571;47.512;19.054;2023-05-02T15:40:37;100441.69;;;23.02;33.25
75891;BME280;64571;47.512;19.054;2023-05-02T15:43:39;100430.41;;;23.06;33.20
75891;BME280;64571;47.512;19.054;2023-05-02T15:46:42;100425.56;;;23.10;33.14
75891;BME280;64571;47.512;19.054;2023-05-02T15:49:48;100421.03;;;23.02;33.35
75891;BME280;64571;47.512;19.054;2023-05-02T15:52:55;100428.66;;;22.97;33.54
75891;BME280;64571;47.512;19.054;2023-05-02T15:55:57;100432.34;;;23.02;33.56
75891;BME280;64571;47.512;19.054;2023-05-02T15:59:00;100417.88;;;22.84;33.76
75891;BME280;64571;47.512;19.054;2023-05-02T16:02:03;100414.53;;;22.78;34.00
75891;BME280;64571;47.512;19.054;2023-05-02T16:05:06;100411.16;;;22.69;34.18
75891;BME280;64571;47.512;19.054;2023-05-02T16:08:08;100412.16;;;22.80;34.15
75891;BME280;64571;47.512;19.054;2023-05-02T16:11:12;100411.81;;;22.85;34.07
75891;BME280;64571;47.512;19.054;2023-05-02T16:14:14;100430.84;;;22.85;34.35
75891;BME280;64571;47.512;19.054;2023-05-02T16:17:17;100430.16;;;22.91;34.36
75891;BME280;64571;47.512;19.054;2023-05-02T16:20:19;100422.84;;;22.90;34.39
75891;BME280;64571;47.512;19.054;2023-05-02T16:23:23;100427.63;;;22.86;34.22
75891;BME280;64571;47.512;19.054;2023-05-02T16:26:27;100428.41;;;22.83;34.29